Time;durP1;ratioP1;P1;durP2;ratioP2;P2;SDS_P1;SDS_P2;PMS_P1;PMS_P2;Temp;Humidity;BMP_temperature;BMP_pressure;BME280_temperature;BME280_humidity;BME280_pressure;Samples;Min_cycle;Max_cycle;Signal;HPM_P1;HPM_P2
2023/12/08 00:01:26;;;;;;;14.73;8.80;;;-9.70;93.20;;;;;;4935604;29;20031;-78
2023/12/08 00:03:51;;;;;;;11.35;7.43;;;-9.70;93.10;;;;;;4936465;29;20023;-78
2023/12/08 00:06:18;;;;;;;18.13;9.23;;;-9.70;93.00;;;;;;4927998;29;20055;-77
2023/12/08 00:08:44;;;;;;;12.38;7.00;;;-9.70;93.00;;;;;;4934274;29;20071;-77
2023/12/08 00:11:11;;;;;;;17.33;8.80;;;-9.70;93.10;;;;;;4936657;29;20039;-78
2023/12/08 00:13:38;;;;;;;16.77;9.57;;;-9.70;93.20;;;;;;4936609;29;20016;-77
2023/12/08 00:16:04;;;;;;;18.50;8.95;;;-9.70;93.10;;;;;;4926957;29;20032;-78
2023/12/08 00:18:30;;;;;;;18.17;9.75;;;-9.60;93.10;;;;;;4936665;29;20466;-77
2023/12/08 00:20:56;;;;;;;17.65;8.48;;;-9.60;93.20;;;;;;4936439;29;20035;-78
2023/12/08 00:23:22;;;;;;;15.27;10.32;;;-9.50;93.40;;;;;;4936442;29;20020;-78
2023/12/08 00:25:48;;;;;;;16.88;10.18;;;-9.50;93.40;;;;;;4923076;29;20393;-78
2023/12/08 00:28:13;;;;;;;19.10;9.35;;;-9.40;93.40;;;;;;4938313;29;20823;-79
2023/12/08 00:30:40;;;;;;;17.02;9.82;;;-9.30;93.20;;;;;;4938635;29;20035;-79
2023/12/08 00:33:06;;;;;;;17.73;9.97;;;-9.30;93.20;;;;;;4936762;29;20022;-78
2023/12/08 00:35:32;;;;;;;16.63;8.32;;;-9.30;93.20;;;;;;4919280;29;20031;-78
2023/12/08 00:37:58;;;;;;;17.27;9.63;;;-9.30;93.20;;;;;;4935191;29;20031;-79
2023/12/08 00:40:24;;;;;;;20.48;9.70;;;-9.20;93.10;;;;;;4936224;29;20023;-78
2023/12/08 00:42:50;;;;;;;17.42;9.50;;;-9.30;92.80;;;;;;4944760;29;20023;-79
2023/12/08 00:45:16;;;;;;;20.02;10.05;;;-9.30;92.80;;;;;;4955430;29;20038;-79
2023/12/08 00:47:42;;;;;;;17.40;8.50;;;-9.30;92.90;;;;;;4937898;29;20089;-78
2023/12/08 00:50:08;;;;;;;18.63;9.52;;;-9.30;93.00;;;;;;4955225;29;20020;-78
2023/12/08 00:52:35;;;;;;;13.02;7.95;;;-9.20;93.10;;;;;;4936766;29;20024;-80
2023/12/08 00:55:01;;;;;;;16.05;8.68;;;-9.20;93.10;;;;;;4955025;29;20491;-78
2023/12/08 00:57:27;;;;;;;17.67;9.70;;;-9.10;93.50;;;;;;4955241;29;20028;-78
2023/12/08 00:59:53;;;;;;;17.55;9.95;;;-9.10;93.10;;;;;;4937160;29;20476;-79
2023/12/08 01:02:19;;;;;;;20.42;12.35;;;-9.20;92.60;;;;;;4955820;29;20023;-78
2023/12/08 01:04:45;;;;;;;17.77;9.05;;;-9.20;92.70;;;;;;4953557;29;20034;-79
2023/12/08 01:07:11;;;;;;;17.48;11.15;;;-9.30;92.70;;;;;;4954931;29;20093;-79
2023/12/08 01:09:36;;;;;;;16.13;9.07;;;-9.30;92.90;;;;;;4954845;29;20054;-78
2023/12/08 01:12:03;;;;;;;17.10;10.82;;;-9.30;92.90;;;;;;4956526;29;20024;-79
2023/12/08 01:14:30;;;;;;;18.20;9.32;;;-9.30;92.90;;;;;;4950438;29;20518;-78
2023/12/08 01:16:56;;;;;;;20.17;10.02;;;-9.40;92.90;;;;;;4921640;29;20095;-78
2023/12/08 01:19:22;;;;;;;13.05;8.55;;;-9.50;93.20;;;;;;4954828;29;20027;-78
2023/12/08 01:21:48;;;;;;;16.33;7.53;;;-9.50;93.30;;;;;;4937134;29;20035;-78
2023/12/08 01:24:15;;;;;;;17.48;9.10;;;-9.50;93.30;;;;;;4937312;29;20110;-77
2023/12/08 01:26:44;;;;;;;20.00;9.63;;;-9.40;93.70;;;;;;4954559;29;20035;-79
2023/12/08 01:29:11;;;;;;;13.07;8.63;;;-9.30;93.90;;;;;;4952851;29;20424;-76
2023/12/08 01:31:37;;;;;;;19.38;7.20;;;-9.30;93.70;;;;;;4954568;29;20027;-78
2023/12/08 01:34:02;;;;;;;15.32;8.82;;;-9.20;93.40;;;;;;4937252;29;20370;-78
2023/12/08 01:36:28;;;;;;;14.00;10.30;;;-9.30;93.10;;;;;;4953155;29;20034;-78
2023/12/08 01:38:54;;;;;;;14.30;8.35;;;-9.30;93.00;;;;;;4950750;29;20071;-77
2023/12/08 01:41:20;;;;;;;18.15;9.65;;;-9.40;92.90;;;;;;4942534;29;20070;-78
2023/12/08 01:43:46;;;;;;;14.02;8.68;;;-9.40;93.10;;;;;;4949779;29;20033;-77
2023/12/08 01:46:17;;;;;;;16.58;9.48;;;-9.50;93.20;;;;;;4946501;29;20047;-79
2023/12/08 01:48:45;;;;;;;17.65;9.25;;;-9.50;93.10;;;;;;4954459;29;20190;-78
2023/12/08 01:51:11;;;;;;;;;;;-9.50;93.30;;;;;;4956160;29;20019;-78
2023/12/08 01:53:38;;;;;;;19.08;9.00;;;-9.40;93.50;;;;;;4956156;29;19910;-79
2023/12/08 01:56:04;;;;;;;15.23;9.32;;;-9.40;93.50;;;;;;4953944;29;20023;-77
2023/12/08 01:58:30;;;;;;;15.60;9.00;;;-9.40;93.40;;;;;;4948593;29;20027;-78
2023/12/08 02:00:57;;;;;;;18.80;10.10;;;-9.50;93.40;;;;;;4954111;29;20038;-78
2023/12/08 02:03:25;;;;;;;21.83;11.45;;;-9.50;93.30;;;;;;4954650;29;20023;-80
2023/12/08 02:05:51;;;;;;;21.27;11.60;;;-9.60;93.40;;;;;;4954600;29;20047;-78
2023/12/08 02:08:20;;;;;;;17.77;9.23;;;-9.60;93.40;;;;;;4954229;29;20488;-78
2023/12/08 02:10:47;;;;;;;18.92;11.32;;;-9.60;93.70;;;;;;4945304;29;20050;-79
2023/12/08 02:13:16;;;;;;;16.15;8.88;;;-9.60;93.80;;;;;;4917600;29;20433;-78
2023/12/08 02:15:45;;;;;;;18.13;9.35;;;-9.60;93.70;;;;;;4943415;29;20047;-77
2023/12/08 02:18:14;;;;;;;13.48;8.23;;;-9.70;93.70;;;;;;4954904;29;20421;-78
2023/12/08 02:20:41;;;;;;;22.02;11.05;;;-9.70;93.80;;;;;;4932129;29;20544;-77
2023/12/08 02:23:07;;;;;;;20.10;9.60;;;-9.70;94.00;;;;;;4948590;29;20055;-78
2023/12/08 02:25:34;;;;;;;21.48;10.95;;;-9.70;94.20;;;;;;4954318;29;20031;-79
2023/12/08 02:28:04;;;;;;;19.67;10.00;;;-9.70;94.20;;;;;;4935326;29;20393;-77
2023/12/08 02:30:31;;;;;;;16.13;9.57;;;-9.70;94.40;;;;;;4957531;29;20023;-78
2023/12/08 02:33:17;;;;;;;19.40;11.13;;;-9.70;94.40;;;;;;4961376;29;20138;-77
2023/12/08 02:35:45;;;;;;;22.95;11.48;;;-9.60;94.50;;;;;;4957095;29;20027;-79
2023/12/08 02:38:17;;;;;;;15.60;8.80;;;-9.60;94.50;;;;;;4957524;29;20028;-79
2023/12/08 02:40:43;;;;;;;19.42;10.20;;;-9.60;94.50;;;;;;4952564;29;20027;-77
2023/12/08 02:43:09;;;;;;;21.23;11.57;;;-9.60;94.70;;;;;;4932562;29;20508;-79
2023/12/08 02:45:35;;;;;;;12.10;7.60;;;-9.60;94.60;;;;;;4936691;29;20040;-78
2023/12/08 02:48:01;;;;;;;16.27;9.35;;;-9.60;94.60;;;;;;4955933;29;20115;-77
2023/12/08 02:50:26;;;;;;;18.05;10.85;;;-9.60;94.50;;;;;;4957486;29;20028;-78
2023/12/08 02:52:52;;;;;;;18.88;10.63;;;-9.70;94.60;;;;;;4954535;29;20054;-77
2023/12/08 02:55:18;;;;;;;17.52;10.88;;;-9.70;95.00;;;;;;4940419;29;20130;-76
2023/12/08 02:57:44;;;;;;;19.35;10.00;;;-9.70;94.80;;;;;;4939696;29;20122;-78
2023/12/08 03:00:10;;;;;;;21.85;10.90;;;-9.70;94.70;;;;;;4958989;29;20034;-78
2023/12/08 03:02:36;;;;;;;25.13;10.05;;;-9.80;94.60;;;;;;4957317;29;20027;-78
2023/12/08 03:05:03;;;;;;;20.73;10.27;;;-9.80;94.80;;;;;;4939670;29;20488;-78
2023/12/08 03:07:29;;;;;;;23.25;14.32;;;-9.80;95.00;;;;;;4957242;29;20433;-78
2023/12/08 03:09:55;;;;;;;20.85;12.63;;;-9.70;95.00;;;;;;4956822;29;20082;-78
2023/12/08 03:12:21;;;;;;;12.75;7.60;;;-9.70;95.00;;;;;;4939630;29;20034;-78
2023/12/08 03:14:47;;;;;;;26.73;11.73;;;-9.70;94.70;;;;;;4956651;29;20034;-77
2023/12/08 03:17:13;;;;;;;25.77;10.98;;;-9.70;94.80;;;;;;4957051;29;20032;-78
2023/12/08 03:19:40;;;;;;;21.88;9.80;;;-9.70;94.90;;;;;;4956909;29;20047;-80
2023/12/08 03:22:06;;;;;;;21.58;11.95;;;-9.70;95.00;;;;;;4956695;29;20016;-77
2023/12/08 03:24:32;;;;;;;21.65;10.82;;;-9.60;95.00;;;;;;4956639;29;20503;-78
2023/12/08 03:26:58;;;;;;;18.27;9.68;;;-9.60;95.00;;;;;;4939129;29;20039;-77
2023/12/08 03:29:24;;;;;;;15.27;9.25;;;-9.60;95.00;;;;;;4955421;29;20023;-78
2023/12/08 03:31:50;;;;;;;21.40;10.82;;;-9.60;95.00;;;;;;4956596;29;20035;-78
2023/12/08 03:34:16;;;;;;;17.20;8.52;;;-9.50;95.00;;;;;;4946101;29;20023;-79
2023/12/08 03:36:41;;;;;;;19.63;9.68;;;-9.40;95.00;;;;;;4956688;29;20059;-77
2023/12/08 03:39:07;;;;;;;15.50;7.53;;;-9.40;94.90;;;;;;4946509;29;20019;-79
2023/12/08 03:41:33;;;;;;;22.92;10.75;;;-9.40;94.90;;;;;;4958586;29;20421;-78
2023/12/08 03:43:59;;;;;;;19.35;10.38;;;-9.40;94.80;;;;;;4956031;29;20027;-77
2023/12/08 03:46:25;;;;;;;16.70;9.63;;;-9.30;95.00;;;;;;4955798;29;20090;-79
2023/12/08 03:48:51;;;;;;;15.02;9.95;;;-9.40;94.50;;;;;;4956307;29;20043;-78
2023/12/08 03:51:18;;;;;;;21.88;11.68;;;-9.50;94.30;;;;;;4951528;29;20047;-79
2023/12/08 03:53:44;;;;;;;15.75;7.35;;;-9.70;94.40;;;;;;4956201;29;20031;-78
2023/12/08 03:56:10;;;;;;;21.85;10.52;;;-9.70;94.40;;;;;;4956093;29;20369;-79
2023/12/08 03:58:36;;;;;;;21.00;9.88;;;-9.60;94.60;;;;;;4956277;29;20011;-78
2023/12/08 04:01:02;;;;;;;24.27;11.63;;;-9.60;94.70;;;;;;4956168;29;20507;-78
2023/12/08 04:03:28;;;;;;;14.98;9.07;;;-9.60;94.80;;;;;;4952632;29;20035;-78
2023/12/08 04:05:54;;;;;;;16.63;10.10;;;-9.50;94.80;;;;;;4959392;29;20039;-77
2023/12/08 04:08:19;;;;;;;20.27;9.10;;;-9.50;94.80;;;;;;4956294;29;20086;-77
2023/12/08 04:10:45;;;;;;;25.25;12.70;;;-9.50;94.70;;;;;;4956046;29;20034;-79
2023/12/08 04:13:14;;;;;;;27.45;12.10;;;-9.40;94.80;;;;;;4938593;29;20087;-80
2023/12/08 04:15:40;;;;;;;19.50;10.70;;;-9.40;94.70;;;;;;4948828;29;20038;-78
2023/12/08 04:18:06;;;;;;;24.10;11.05;;;-9.30;94.70;;;;;;4955996;29;20110;-77
2023/12/08 04:20:32;;;;;;;18.90;10.18;;;-9.30;94.80;;;;;;4955920;29;20027;-78
2023/12/08 04:22:58;;;;;;;21.77;9.95;;;-9.30;94.70;;;;;;4955617;29;20147;-76
2023/12/08 04:25:24;;;;;;;19.65;9.85;;;-9.30;94.80;;;;;;4938301;29;20129;-78
2023/12/08 04:27:50;;;;;;;22.02;10.48;;;-9.20;94.60;;;;;;4952828;29;20035;-77
2023/12/08 04:30:16;;;;;;;21.55;10.68;;;-9.30;94.50;;;;;;4954037;29;20027;-78
2023/12/08 04:32:42;;;;;;;16.77;9.23;;;-9.30;94.40;;;;;;4953460;29;20032;-78
2023/12/08 04:35:08;;;;;;;19.05;10.73;;;-9.40;94.20;;;;;;4946096;29;20020;-76
2023/12/08 04:37:34;;;;;;;17.98;9.75;;;-9.40;94.30;;;;;;4955520;29;20935;-78
2023/12/08 04:39:59;;;;;;;19.63;10.45;;;-9.40;94.40;;;;;;4942983;29;20035;-78
2023/12/08 04:42:25;;;;;;;20.20;9.68;;;-9.40;94.50;;;;;;4953216;29;20019;-79
2023/12/08 04:44:51;;;;;;;20.00;10.05;;;-9.30;94.60;;;;;;4956964;29;20034;-78
2023/12/08 04:47:17;;;;;;;20.40;9.70;;;-9.30;94.60;;;;;;4954645;29;20038;-80
2023/12/08 04:49:43;;;;;;;18.08;10.63;;;-9.30;94.60;;;;;;4954862;29;20469;-78
2023/12/08 04:52:08;;;;;;;20.35;11.48;;;-9.30;94.60;;;;;;4953561;28;20082;-79
2023/12/08 04:54:34;;;;;;;17.58;10.35;;;-9.30;94.60;;;;;;4954682;29;20373;-79
2023/12/08 04:57:00;;;;;;;24.65;12.30;;;-9.30;95.00;;;;;;4954920;29;20024;-78
2023/12/08 04:59:26;;;;;;;16.17;10.18;;;-9.30;94.80;;;;;;4955001;29;20047;-78
2023/12/08 05:01:52;;;;;;;25.15;11.60;;;-9.30;94.70;;;;;;4954958;29;20030;-77
2023/12/08 05:04:21;;;;;;;21.45;12.18;;;-9.30;94.80;;;;;;4954099;29;20114;-79
2023/12/08 05:06:47;;;;;;;20.50;11.15;;;-9.30;94.90;;;;;;4954472;29;20050;-78
2023/12/08 05:09:13;;;;;;;21.88;10.93;;;-9.30;94.80;;;;;;4955131;29;20023;-77
2023/12/08 05:11:40;;;;;;;18.83;10.43;;;-9.30;94.70;;;;;;4954600;29;20033;-78
2023/12/08 05:14:06;;;;;;;30.13;11.98;;;-9.30;94.60;;;;;;4947923;29;20020;-79
2023/12/08 05:16:31;;;;;;;22.92;11.35;;;-9.40;94.60;;;;;;4936025;29;20110;-78
2023/12/08 05:18:57;;;;;;;18.17;11.40;;;-9.40;94.70;;;;;;4955348;29;20024;-79
2023/12/08 05:21:24;;;;;;;22.13;13.35;;;-9.40;94.70;;;;;;4939800;29;20194;-79
2023/12/08 05:23:50;;;;;;;19.67;12.33;;;-9.40;94.50;;;;;;4959407;29;20038;-76
2023/12/08 05:26:16;;;;;;;20.80;11.02;;;-9.40;94.30;;;;;;4954559;29;20293;-80
2023/12/08 05:28:42;;;;;;;18.08;11.60;;;-9.40;94.50;;;;;;4936930;29;20023;-79
2023/12/08 05:31:08;;;;;;;23.95;11.98;;;-9.40;94.70;;;;;;4954486;29;20023;-79
2023/12/08 05:33:34;;;;;;;28.50;16.98;;;-9.30;94.90;;;;;;4953799;29;20358;-77
2023/12/08 05:36:00;;;;;;;19.97;11.30;;;-9.30;95.00;;;;;;4953913;29;20034;-80
2023/12/08 05:38:26;;;;;;;25.45;13.50;;;-9.20;94.80;;;;;;4939706;29;20269;-78
2023/12/08 05:40:52;;;;;;;16.67;10.05;;;-9.30;94.50;;;;;;4945492;29;20381;-80
2023/12/08 05:43:18;;;;;;;17.15;11.07;;;-9.30;94.50;;;;;;4940868;29;20024;-79
2023/12/08 05:45:44;;;;;;;22.52;10.32;;;-9.40;94.60;;;;;;4951951;29;20039;-79
2023/12/08 05:48:10;;;;;;;24.63;13.95;;;-9.30;94.80;;;;;;4947877;29;20098;-79
2023/12/08 05:50:36;;;;;;;19.83;11.88;;;-9.30;94.70;;;;;;4949512;29;20058;-78
2023/12/08 05:53:02;;;;;;;21.58;12.25;;;-9.30;94.50;;;;;;4951568;29;20023;-79
2023/12/08 05:55:28;;;;;;;22.60;11.77;;;-9.40;94.40;;;;;;4943404;29;20058;-78
2023/12/08 05:57:53;;;;;;;19.20;11.07;;;-9.30;94.50;;;;;;4949688;29;20019;-79
2023/12/08 06:00:20;;;;;;;22.90;10.88;;;-9.30;94.70;;;;;;4949601;29;20019;-79
2023/12/08 06:02:46;;;;;;;22.88;11.32;;;-9.20;94.80;;;;;;4951775;28;20032;-78
2023/12/08 06:05:13;;;;;;;25.52;12.35;;;-9.20;94.60;;;;;;4952463;29;20489;-79
2023/12/08 06:07:39;;;;;;;21.70;10.05;;;-9.20;94.50;;;;;;4933376;29;20036;-79
2023/12/08 06:10:07;;;;;;;24.70;12.02;;;-9.20;94.50;;;;;;4934715;29;20560;-78
2023/12/08 06:12:36;;;;;;;25.90;12.43;;;-9.30;94.50;;;;;;4939456;29;20075;-78
2023/12/08 06:15:02;;;;;;;21.92;12.82;;;-9.30;94.50;;;;;;4952191;29;20494;-77
2023/12/08 06:17:28;;;;;;;26.45;9.60;;;-9.30;94.50;;;;;;4953974;29;20511;-80
2023/12/08 06:19:56;;;;;;;20.08;11.60;;;-9.20;94.40;;;;;;4953963;29;20027;-78
2023/12/08 06:22:22;;;;;;;25.23;12.88;;;-9.30;94.50;;;;;;4953665;29;20019;-77
2023/12/08 06:24:47;;;;;;;25.88;10.23;;;-9.20;94.60;;;;;;4943745;29;20027;-77
2023/12/08 06:27:14;;;;;;;24.00;13.20;;;-9.20;94.60;;;;;;4942125;29;20039;-79
2023/12/08 06:29:40;;;;;;;25.05;13.48;;;-9.10;94.80;;;;;;4954605;29;20027;-78
2023/12/08 06:32:06;;;;;;;25.33;14.35;;;-9.10;94.70;;;;;;4952075;29;20357;-79
2023/12/08 06:34:32;;;;;;;27.25;12.70;;;-9.00;94.60;;;;;;4936577;29;20083;-79
2023/12/08 06:36:58;;;;;;;28.05;13.43;;;-9.00;94.70;;;;;;4931981;29;20114;-79
2023/12/08 06:39:24;;;;;;;16.30;11.10;;;-9.00;94.60;;;;;;4944493;29;20418;-79
2023/12/08 06:41:50;;;;;;;26.50;13.38;;;-9.00;94.60;;;;;;4953877;29;20397;-77
2023/12/08 06:44:16;;;;;;;22.55;12.00;;;-8.90;94.20;;;;;;4935995;29;20027;-78
2023/12/08 06:46:43;;;;;;;29.10;12.30;;;-9.20;93.60;;;;;;4949158;29;20438;-79
2023/12/08 06:49:09;;;;;;;26.42;12.65;;;-9.30;94.10;;;;;;4922569;29;20050;-80
2023/12/08 06:51:35;;;;;;;10.63;7.45;;;-9.30;94.40;;;;;;4948670;29;20031;-78
2023/12/08 06:54:02;;;;;;;25.23;11.50;;;-9.30;94.20;;;;;;4938933;29;20103;-79
2023/12/08 06:56:29;;;;;;;20.77;11.10;;;-9.30;94.10;;;;;;4950299;29;20258;-80
2023/12/08 06:58:55;;;;;;;21.08;12.10;;;-9.30;94.50;;;;;;4953899;29;20031;-79
2023/12/08 07:01:22;;;;;;;27.15;14.45;;;-9.20;94.70;;;;;;4936594;29;20019;-81
2023/12/08 07:03:48;;;;;;;22.35;11.63;;;-9.10;94.90;;;;;;4945868;29;20027;-79
2023/12/08 07:06:14;;;;;;;23.27;12.70;;;-9.00;94.90;;;;;;4938430;29;20493;-79
2023/12/08 07:08:40;;;;;;;21.75;12.85;;;-9.00;94.20;;;;;;4933387;29;20019;-80
2023/12/08 07:11:06;;;;;;;25.70;15.00;;;-9.10;93.90;;;;;;4952207;29;20027;-78
2023/12/08 07:13:32;;;;;;;26.50;12.50;;;-9.20;94.00;;;;;;4953641;28;20147;-79
2023/12/08 07:15:58;;;;;;;25.60;15.32;;;-9.10;94.20;;;;;;4939485;29;20038;-79
2023/12/08 07:18:24;;;;;;;24.70;15.00;;;-9.10;94.20;;;;;;4954927;29;20019;-81
2023/12/08 07:20:50;;;;;;;28.08;14.18;;;-9.10;94.40;;;;;;4944886;29;20480;-77
2023/12/08 07:23:16;;;;;;;27.80;14.40;;;-9.10;94.50;;;;;;4939596;29;20093;-78
2023/12/08 07:25:42;;;;;;;26.33;14.80;;;-9.00;94.50;;;;;;4956696;29;20023;-79
2023/12/08 07:28:08;;;;;;;23.95;15.00;;;-9.00;93.80;;;;;;4939783;29;20031;-79
2023/12/08 07:30:34;;;;;;;28.27;13.55;;;-9.00;93.70;;;;;;4957462;29;20038;-78
2023/12/08 07:33:00;;;;;;;17.88;9.65;;;-9.10;93.70;;;;;;4957481;29;20110;-78
2023/12/08 07:35:25;;;;;;;21.00;13.30;;;-9.10;93.70;;;;;;4939299;29;20042;-78
2023/12/08 07:37:51;;;;;;;30.02;12.40;;;-9.10;93.70;;;;;;4955628;29;20037;-79
2023/12/08 07:40:22;;;;;;;26.83;12.90;;;-9.10;93.90;;;;;;4938986;29;20110;-79
2023/12/08 07:42:48;;;;;;;25.50;12.43;;;-9.10;93.90;;;;;;4949892;29;20039;-78
2023/12/08 07:45:14;;;;;;;20.33;11.38;;;-9.10;93.90;;;;;;4950372;29;20038;-78
2023/12/08 07:47:40;;;;;;;20.50;12.77;;;-9.10;93.60;;;;;;4956698;29;20517;-78
2023/12/08 07:50:06;;;;;;;20.90;12.50;;;-9.00;93.60;;;;;;4956620;29;20087;-78
2023/12/08 07:52:33;;;;;;;24.73;13.23;;;-9.00;93.60;;;;;;4956675;29;20115;-78
2023/12/08 07:54:59;;;;;;;25.67;12.73;;;-8.90;93.60;;;;;;4956566;29;20027;-79
2023/12/08 07:57:25;;;;;;;25.48;14.30;;;-9.00;93.60;;;;;;4956363;29;20387;-78
2023/12/08 07:59:51;;;;;;;25.17;13.43;;;-8.90;93.60;;;;;;4956636;29;20022;-79
2023/12/08 08:02:17;;;;;;;17.60;11.07;;;-8.90;93.30;;;;;;4950710;29;20042;-78
2023/12/08 08:04:43;;;;;;;24.23;10.75;;;-8.90;92.70;;;;;;4933831;29;20036;-78
2023/12/08 08:07:09;;;;;;;35.20;15.93;;;-9.00;92.80;;;;;;4952135;29;20035;-78
2023/12/08 08:09:35;;;;;;;19.98;12.95;;;-9.00;93.20;;;;;;4955134;29;20019;-81
2023/12/08 08:12:02;;;;;;;28.80;13.88;;;-8.90;93.60;;;;;;4943249;29;20145;-77
2023/12/08 08:14:28;;;;;;;19.83;12.68;;;-8.80;93.80;;;;;;4963009;29;20098;-78
2023/12/08 08:16:54;;;;;;;25.40;12.45;;;-8.70;93.60;;;;;;4966775;29;20046;-77
2023/12/08 08:19:19;;;;;;;19.83;11.15;;;-8.60;93.30;;;;;;4963729;29;20527;-78
2023/12/08 08:21:46;;;;;;;27.90;15.85;;;-8.60;93.70;;;;;;4958913;29;20504;-79
2023/12/08 08:24:11;;;;;;;21.23;12.60;;;-8.40;93.60;;;;;;4957685;29;20085;-78
2023/12/08 08:26:42;;;;;;;25.30;13.63;;;-8.40;93.40;;;;;;4956388;28;20113;-78
2023/12/08 08:29:09;;;;;;;24.50;13.77;;;-8.30;93.40;;;;;;4938541;29;20027;-78
2023/12/08 08:31:35;;;;;;;26.70;14.07;;;-8.20;93.00;;;;;;4951703;29;20032;-80
2023/12/08 08:34:03;;;;;;;27.90;13.32;;;-8.20;93.00;;;;;;4955571;29;20039;-79
2023/12/08 08:36:29;;;;;;;31.73;16.90;;;-8.10;92.60;;;;;;4959114;29;20023;-80
2023/12/08 08:38:55;;;;;;;32.78;17.65;;;-8.10;91.90;;;;;;4958092;29;20016;-79
2023/12/08 08:41:22;;;;;;;30.27;15.93;;;-8.20;92.20;;;;;;4955890;29;20098;-78
2023/12/08 08:43:48;;;;;;;26.48;14.80;;;-8.30;92.10;;;;;;4955698;29;20026;-79
2023/12/08 08:46:14;;;;;;;26.75;14.88;;;-8.40;91.90;;;;;;4938246;29;20614;-78
2023/12/08 08:48:40;;;;;;;29.65;14.23;;;-8.50;91.80;;;;;;4955258;29;20043;-79
2023/12/08 08:51:06;;;;;;;26.65;14.02;;;-8.50;92.40;;;;;;4955124;29;20038;-79
2023/12/08 08:53:33;;;;;;;23.50;13.83;;;-8.40;93.10;;;;;;4955452;29;20019;-80
2023/12/08 08:55:59;;;;;;;35.00;15.73;;;-8.30;93.50;;;;;;4956175;29;20094;-80
2023/12/08 08:58:25;;;;;;;22.08;13.15;;;-8.30;93.30;;;;;;4954905;29;20465;-77
2023/12/08 09:00:51;;;;;;;26.40;15.40;;;-8.30;93.00;;;;;;4955740;29;20027;-79
2023/12/08 09:03:19;;;;;;;27.77;14.65;;;-8.30;92.70;;;;;;4954214;29;20139;-80
2023/12/08 09:05:45;;;;;;;32.50;16.92;;;-8.40;92.70;;;;;;4934434;29;20035;-79
2023/12/08 09:08:12;;;;;;;23.13;13.68;;;-8.30;92.50;;;;;;4944230;29;20108;-77
2023/12/08 09:10:38;;;;;;;22.92;11.23;;;-8.30;92.20;;;;;;4946860;29;20038;-79
2023/12/08 09:13:04;;;;;;;27.48;13.27;;;-8.30;92.30;;;;;;4955464;29;20031;-79
2023/12/08 09:15:31;;;;;;;26.05;15.10;;;-8.30;92.40;;;;;;4954957;29;20031;-82
2023/12/08 09:17:57;;;;;;;28.02;13.32;;;-8.20;92.40;;;;;;4955300;29;20034;-83
2023/12/08 09:20:23;;;;;;;24.33;12.15;;;-8.20;92.40;;;;;;4937764;29;20388;-79
2023/12/08 09:22:51;;;;;;;21.95;14.73;;;-8.10;92.40;;;;;;4937346;29;20122;-79
2023/12/08 09:25:17;;;;;;;;;;;-8.10;92.00;;;;;;4955291;29;20028;-79
2023/12/08 09:27:43;;;;;;;;;;;-8.10;91.70;;;;;;4955051;29;19914;-81
2023/12/08 09:30:10;;;;;;;19.80;11.67;;;-8.10;91.50;;;;;;4954613;29;20021;-80
2023/12/08 09:32:35;;;;;;;26.43;12.43;;;-8.20;92.20;;;;;;4954495;29;20384;-80
2023/12/08 09:35:01;;;;;;;34.05;16.50;;;-8.10;92.30;;;;;;4954837;29;20020;-79
2023/12/08 09:37:27;;;;;;;22.98;13.18;;;-8.10;92.40;;;;;;4954794;28;20109;-82
2023/12/08 09:39:53;;;;;;;21.95;10.75;;;-8.00;92.40;;;;;;4938683;29;20027;-80
2023/12/08 09:42:25;;;;;;;27.05;12.75;;;-8.00;92.20;;;;;;4953543;29;20035;-82
2023/12/08 09:44:52;;;;;;;21.15;13.02;;;-8.00;92.60;;;;;;4954433;29;20026;-82
2023/12/08 09:47:21;;;;;;;18.10;10.80;;;-7.90;92.40;;;;;;4937199;29;20543;-82
2023/12/08 09:49:49;;;;;;;21.48;11.50;;;-8.00;92.20;;;;;;4952149;29;20062;-83
2023/12/08 09:52:15;;;;;;;19.50;12.70;;;-8.00;92.30;;;;;;4955654;29;20034;-81
2023/12/08 09:54:43;;;;;;;22.63;13.60;;;-8.00;92.20;;;;;;4949620;29;20019;-79
2023/12/08 09:57:13;;;;;;;20.17;11.93;;;-8.10;91.40;;;;;;4937451;29;20039;-81
2023/12/08 09:59:41;;;;;;;24.67;12.02;;;-8.20;91.40;;;;;;4937601;29;20015;-80
2023/12/08 10:02:07;;;;;;;26.70;13.02;;;-8.30;91.40;;;;;;4954115;29;20034;-80
2023/12/08 10:04:34;;;;;;;22.05;11.65;;;-8.40;91.20;;;;;;4932267;29;20026;-79
2023/12/08 10:07:03;;;;;;;27.33;12.00;;;-8.50;91.50;;;;;;4937947;29;20043;-82
2023/12/08 10:09:30;;;;;;;24.45;11.60;;;-8.50;91.70;;;;;;4935404;29;20028;-81
2023/12/08 10:11:56;;;;;;;;;;;-8.50;91.80;;;;;;4949207;29;20066;-80
2023/12/08 10:14:25;;;;;;;21.27;10.27;;;-8.50;91.90;;;;;;4951199;29;20025;-84
2023/12/08 10:16:52;;;;;;;15.70;9.05;;;-8.60;91.70;;;;;;4954599;29;20270;-79
2023/12/08 10:19:20;;;;;;;17.08;11.68;;;-8.80;91.40;;;;;;4949428;29;20019;-82
2023/12/08 10:22:01;;;;;;;24.95;10.90;;;-9.10;91.60;;;;;;4937385;29;20036;-81
2023/12/08 10:24:29;;;;;;;20.10;10.88;;;-9.30;92.00;;;;;;4938159;29;20175;-85
2023/12/08 10:26:57;;;;;;;19.80;10.07;;;-9.20;92.10;;;;;;4934615;29;20038;-85
2023/12/08 10:29:23;;;;;;;22.52;10.95;;;-9.20;92.40;;;;;;4939721;29;20043;-85
2023/12/08 10:31:50;;;;;;;23.80;12.45;;;-9.10;92.50;;;;;;4942313;29;20067;-86
2023/12/08 10:34:17;;;;;;;19.48;12.55;;;-9.00;92.40;;;;;;4933079;29;20032;-85
2023/12/08 10:36:45;;;;;;;22.33;9.57;;;-8.90;92.50;;;;;;4946154;29;20167;-81
2023/12/08 10:39:11;;;;;;;18.77;11.10;;;-8.80;92.30;;;;;;4954238;29;20381;-81
2023/12/08 10:41:39;;;;;;;25.83;12.77;;;-8.90;92.10;;;;;;4936477;29;20031;-81
2023/12/08 10:44:08;;;;;;;24.27;13.77;;;-8.90;92.90;;;;;;4936715;29;20052;-82
2023/12/08 10:46:35;;;;;;;26.80;11.05;;;-8.90;92.70;;;;;;4940883;29;20457;-81
2023/12/08 10:49:01;;;;;;;20.70;11.52;;;-9.00;92.30;;;;;;4954680;28;20054;-80
2023/12/08 10:51:30;;;;;;;19.95;11.02;;;-9.10;92.30;;;;;;4957235;29;20366;-79
2023/12/08 10:53:57;;;;;;;21.40;11.43;;;-9.10;92.30;;;;;;4956884;29;20441;-83
2023/12/08 10:56:23;;;;;;;19.50;11.70;;;-9.10;92.40;;;;;;4957347;29;20469;-79
2023/12/08 10:59:01;;;;;;;26.23;13.48;;;-9.00;92.30;;;;;;4933373;29;20504;-80
2023/12/08 11:01:31;;;;;;;25.27;11.45;;;-9.00;91.90;;;;;;4938319;29;20037;-80
2023/12/08 11:04:01;;;;;;;31.90;12.45;;;-9.10;91.50;;;;;;4939958;29;20059;-80
2023/12/08 11:06:33;;;;;;;16.90;9.15;;;-9.10;91.90;;;;;;4957222;29;20035;-82
2023/12/08 11:09:07;;;;;;;22.73;12.13;;;-9.10;91.90;;;;;;4940256;29;20058;-80
2023/12/08 11:11:35;;;;;;;22.35;11.85;;;-9.10;92.20;;;;;;4957410;29;20027;-80
2023/12/08 11:14:09;;;;;;;23.88;11.48;;;-9.10;92.50;;;;;;4957115;29;20027;-82
2023/12/08 11:17:21;;;;;;;19.75;11.52;;;-9.10;92.20;;;;;;4957131;29;20023;-80
2023/12/08 11:19:48;;;;;;;20.85;13.00;;;-9.10;92.20;;;;;;4898848;29;20120;-81
2023/12/08 11:22:15;;;;;;;22.38;12.07;;;-9.10;92.20;;;;;;4929052;29;20110;-80
2023/12/08 11:24:41;;;;;;;;;;;-9.10;92.10;;;;;;4967979;29;20055;-81
2023/12/08 11:27:30;;;;;;;24.77;10.40;;;-9.10;92.10;;;;;;4966079;29;19938;-80
2023/12/08 11:30:02;;;;;;;22.33;10.95;;;-9.00;92.30;;;;;;4962873;29;20106;-80
2023/12/08 11:32:40;;;;;;;22.55;10.73;;;-9.00;92.20;;;;;;4968481;29;20491;-81
2023/12/08 11:35:12;;;;;;;22.73;11.63;;;-9.00;92.10;;;;;;4962341;29;20086;-80
2023/12/08 11:37:38;;;;;;;26.02;13.10;;;-9.20;91.70;;;;;;4957571;29;20119;-80
2023/12/08 11:40:11;;;;;;;24.38;12.45;;;-9.20;91.80;;;;;;4961514;29;20027;-79
2023/12/08 11:42:38;;;;;;;17.02;10.18;;;-9.20;91.90;;;;;;4938294;29;20035;-80
2023/12/08 11:45:10;;;;;;;22.40;11.45;;;-9.10;92.20;;;;;;4930579;29;20378;-80
2023/12/08 11:47:37;;;;;;;26.50;14.13;;;-9.10;92.30;;;;;;4960255;29;20130;-79
2023/12/08 11:50:05;;;;;;;24.90;11.52;;;-9.10;91.90;;;;;;4937332;29;20030;-79
2023/12/08 11:52:38;;;;;;;22.55;12.68;;;-9.10;92.10;;;;;;4939510;29;20138;-81
2023/12/08 11:55:24;;;;;;;25.92;12.07;;;-9.20;92.10;;;;;;4956763;29;20027;-80
2023/12/08 11:57:59;;;;;;;20.37;10.73;;;-9.30;92.00;;;;;;4937008;29;20063;-78
2023/12/08 12:00:26;;;;;;;25.02;13.25;;;-9.30;92.20;;;;;;4955057;28;20053;-79
2023/12/08 12:02:54;;;;;;;27.77;12.75;;;-9.40;92.20;;;;;;4956006;29;20027;-79
2023/12/08 12:05:20;;;;;;;21.63;10.25;;;-9.40;92.40;;;;;;4939121;29;20027;-78
2023/12/08 12:07:57;;;;;;;21.40;13.85;;;-9.40;92.70;;;;;;4938829;29;20031;-77
2023/12/08 12:10:34;;;;;;;21.88;10.63;;;-9.40;92.20;;;;;;4956188;29;20028;-79
2023/12/08 12:13:12;;;;;;;16.50;10.48;;;-9.50;92.30;;;;;;4938527;29;20031;-79
2023/12/08 12:15:40;;;;;;;21.25;13.00;;;-9.60;92.40;;;;;;4934188;29;20556;-77
2023/12/08 12:18:07;;;;;;;18.80;9.77;;;-9.60;92.40;;;;;;4952323;29;20636;-77
2023/12/08 12:20:35;;;;;;;9.43;7.10;;;-9.60;92.50;;;;;;4954488;29;20543;-83
2023/12/08 12:23:02;;;;;;;21.60;10.93;;;-9.60;92.50;;;;;;4935914;29;20477;-79
2023/12/08 12:25:28;;;;;;;21.52;13.25;;;-9.60;92.60;;;;;;4955810;29;20031;-78
2023/12/08 12:27:55;;;;;;;20.98;10.88;;;-9.60;92.20;;;;;;4955949;29;20406;-78
2023/12/08 12:30:21;;;;;;;28.27;11.32;;;-9.70;92.40;;;;;;4954327;29;20029;-80